Flight Track Log - Related Links

Times and Time Zones

All times are in EDT time to prevent confusion due to time zone crossing. See the RPA4892 flight status page for this flight to view local times or setup timezone preferences in your user account.

Time Position Orientation Groundspeed Altitude Reporting Facility
EDT Latitude Longitude Course Direction KTS MPH feet Rate Location/Type
Wed 10:15:11 PM 40.6667 -74.1667 207° Southwest 176 203 1,900  Level New TRACON
Wed 10:16:11 PM 40.6167 -74.2000 207° Southwest 200 230 4,900 2,762 Climbing New TRACON
Wed 10:17:17 PM 40.6667 -74.2500 323° Northwest 228 262 7,700 1,550 Climbing New TRACON
Wed 10:18:11 PM 40.7333 -74.2667 349° North 284 327 8,000 167 Climbing New TRACON
Wed 10:19:05 PM 40.8000 -74.2500 11° North 276 318 8,000 50 Level New TRACON
Wed 10:20:12 PM 40.8833 -74.2167 17° North 279 321 8,100 50 Climbing New TRACON
Wed 10:21:06 PM 40.9500 -74.2000 11° North 282 325 8,100  Level New TRACON
Wed 10:22:12 PM 41.0167 -74.1500 30° Northeast 295 339 8,100  Level New TRACON
Wed 10:23:06 PM 41.0667 -74.0667 51° Northeast 293 337 8,100  Level New TRACON
Wed 10:24:05 PM 41.1000 -73.9667 66° East 292 336 8,100  Level New TRACON
Wed 10:25:05 PM 41.1333 -73.8667 66° East 297 342 8,100 -50 Level New TRACON
Wed 10:26:05 PM 41.1833 -73.7833 51° Northeast 300 345 8,000  Descending New TRACON
Wed 10:27:05 PM 41.2500 -73.7667 11° North 273 314 8,100 1,000 Climbing New TRACON
Wed 10:28:05 PM 41.3333 -73.7667 360° North 277 319 10,000 945 Climbing New TRACON
Wed 10:29:12 PM 41.4333 -73.7667 360° North 331 381 10,100 48 Climbing New TRACON
Wed 10:30:11 PM 41.5167 -73.7667 360° North 325 374 10,100  Level New TRACON
Wed 10:31:05 PM 41.6000 -73.7667 360° North 320 368 10,100 -59 Level New TRACON
Wed 10:31:52 PM 41.6653 -73.7767 353° North 322 371 10,000 -56 Descending Boston Center
Wed 10:32:52 PM 41.7569 -73.7786 359° North 322 371 10,000  Level Boston Center
Wed 10:33:31 PM 41.8089 -73.7825 357° North 320 368 10,000  Level Boston Center
Wed 10:34:15 PM 41.8797 -73.7814 North 323 372 10,000  Level Boston Center
Wed 10:34:53 PM 41.9361 -73.7825 359° North 322 371 10,000  Level Boston Center
Wed 10:35:52 PM 42.0256 -73.7872 358° North 322 371 10,000  Level Boston Center
Wed 10:36:53 PM 42.1028 -73.7861 North 322 371 10,000  Level Boston Center
Wed 10:37:52 PM 42.1986 -73.7908 358° North 309 356 10,000 -706 Level Boston Center
Wed 10:38:52 PM 42.2672 -73.7925 359° North 285 328 8,600 -1,800 Descending Boston Center
Wed 10:39:52 PM 42.3444 -73.7939 359° North 254 292 6,400 -1,869 Descending Boston Center
Wed 10:40:54 PM 42.4047 -73.7953 359° North 243 280 4,800 -1,475 Descending Boston Center
Wed 10:41:54 PM 42.4839 -73.7969 359° North 243 280 3,400 -1,169 Descending Boston Center
Wed 10:42:52 PM 42.5342 -73.7953 North 217 250 2,500 -458 Descending Boston Center
Wed 10:43:52 PM 42.5861 -73.7994 357° North 212 244 2,500 -150 Level Boston Center
Wed 10:44:52 PM 42.6403 -73.8006 359° North 192 221 2,200 -533 Descending Boston Center
Wed 10:45:22 PM 42.6611 -73.8036 354° North 144 166 1,700 -300 Descending Boston Center
Wed 10:45:52 PM 42.7006 -73.8075 356° North 192 221 1,900 -600 Climbing Boston Center
Wed 10:46:22 PM 42.6964 -73.8044 152° Southeast 124 143 1,100 -1,000 Descending Boston Center
Wed 10:47:22 PM 42.7339 -73.8081 356° North 117 135 400 -700 Descending Boston Center

Login

Don't have an account? Register now (free) for customized features, flight alerts, and more!